Sapporo, Japan

5:04 AM JST on January 21, 2017 (GMT +0900)
Rue des Sausses | | Change Station

Elev 0 ft 43.05 °N, 141.33 °E | Updated 4 minutes ago

Partly Cloudy
Partly Cloudy
16.7 °F
Feels Like 17 °F
N
0.6
Wind Variable Wind from SSE
Gusts 1.9 mph

Today
High -- | Low -- °F
--% Chance of Precip.
Yesterday
High -- | Low -- °F
Precip. -- in
Pressure 29.98 in
Visibility 6.2 miles
Clouds Few 1500 ft
Windchill 17 °F
Dew Point 12 °F
Humidity 80%
Rainfall 0.10 in
Snow Depth Not available.
6:59 AM 4:32 PM
Last Quarter, 41% visible
METAR RJCC 201930Z 35010KT 9999 FEW015 M12/M12 Q1015 RMK 1ST015 A2998
Pressure 29.98 in
Visibility 6.2 miles
Clouds Few 1500 ft
Windchill 17 °F
Dew Point 12 °F
Humidity 80%
Rainfall 0.10 in
Snow Depth Not available.
6:59 AM 4:32 PM
Last Quarter, 41% visible
METAR RJCC 201930Z 35010KT 9999 FEW015 M12/M12 Q1015 RMK 1ST015 A2998

Get Your Daily Forecast Email!

Thanks for signing up!

Be on the lookout for a verification email in your inbox.

You'll start receiving the daily forecast at 8 AM.

×

10-Day Weather Forecast

No radar image for this location.
×

Almanac

Astronomy

Jan. 21, 2017 Rise Set
Actual Time
Civil Twilight
Nautical Twilight
Astronomical Twilight
Moon
Length of Visible Light
Length of Day
Tomorrow will be .
, % of the Moon is Illuminated

Today's Extremes

Country Highs Country Lows

Community

WunderPhotos

Upload Photos

1,962,540 photos uploaded!

WunderBlog® & News

Nearby

Air Quality

  Air Quality AQ Index Pollutant
Not available.

Snow Depth

Station Depth Elevation

Earthquake Activity

City Distance Mag. Time & Date
Minimum magnitude displayed is 2.5.

Coastal Water Temperatures

Place Temperature

Stations

Nearby Weather Stations

Station Location Temp. Windchill Dew Point Humidity Wind Precip. Elev Updated Type